Time;durP1;ratioP1;P1;durP2;ratioP2;P2;SDS_P1;SDS_P2;PMS_P1;PMS_P2;Temp;Humidity;BMP_temperature;BMP_pressure;BME280_temperature;BME280_humidity;BME280_pressure;Samples;Min_cycle;Max_cycle;Signal;HPM_P1;HPM_P2
2023/11/11 00:01:04;;;;;;;0.47;0.47;;;;;;;9.48;96.60;96346.09;5067542;28;20500;-63
2023/11/11 00:03:34;;;;;;;0.40;0.40;;;;;;;9.52;96.81;96341.38;5071190;28;20063;-62
2023/11/11 00:06:01;;;;;;;0.40;0.40;;;;;;;9.55;95.90;96335.06;5066191;28;20056;-62
2023/11/11 00:08:28;;;;;;;0.50;0.50;;;;;;;9.52;95.46;96327.53;5066655;28;20048;-63
2023/11/11 00:10:55;;;;;;;0.50;0.50;;;;;;;9.56;95.71;96325.63;5066576;28;20071;-62
2023/11/11 00:13:22;;;;;;;0.50;0.50;;;;;;;9.45;96.08;96310.91;5066391;28;20056;-64
2023/11/11 00:15:50;;;;;;;0.40;0.40;;;;;;;9.53;96.82;96318.06;5065062;28;20052;-62
2023/11/11 00:18:18;;;;;;;0.40;0.40;;;;;;;9.55;96.79;96312.97;5064513;28;20050;-62
2023/11/11 00:20:48;;;;;;;0.40;0.40;;;;;;;9.31;96.71;96274.81;5066370;28;20095;-63
2023/11/11 00:23:15;;;;;;;0.40;0.40;;;;;;;9.57;96.17;96321.69;5065937;28;20055;-62
2023/11/11 00:25:46;;;;;;;0.40;0.40;;;;;;;9.47;96.75;96322.34;5065969;28;20056;-62
2023/11/11 00:28:14;;;;;;;0.50;0.50;;;;;;;8.93;96.77;96222.78;5065971;28;20533;-62
2023/11/11 00:30:45;;;;;;;0.40;0.40;;;;;;;9.40;97.39;96308.50;5065957;28;20057;-62
2023/11/11 00:33:12;;;;;;;0.40;0.40;;;;;;;9.41;97.71;96315.59;5066012;28;20060;-62
2023/11/11 00:35:39;;;;;;;0.40;0.40;;;;;;;9.37;98.61;96312.00;5065730;28;20049;-62
2023/11/11 00:38:09;;;;;;;0.50;0.50;;;;;;;9.39;99.00;96309.66;5065847;28;20492;-62
2023/11/11 00:40:39;;;;;;;0.40;0.40;;;;;;;8.89;98.93;96252.31;5066055;28;20062;-63
2023/11/11 00:43:07;;;;;;;0.40;0.40;;;;;;;9.42;99.52;96289.53;5065729;28;20523;-62
2023/11/11 00:45:34;;;;;;;0.50;0.50;;;;;;;9.47;99.37;96275.38;5065648;28;20148;-63
2023/11/11 00:48:01;;;;;;;0.40;0.40;;;;;;;9.52;99.17;96286.06;5064224;28;20056;-62
2023/11/11 00:50:28;;;;;;;0.40;0.40;;;;;;;9.22;98.19;96216.31;5065376;28;20131;-62
2023/11/11 00:52:55;;;;;;;0.43;0.43;;;;;;;9.55;97.91;96279.78;5065570;28;20066;-62
2023/11/11 00:55:22;;;;;;;0.40;0.40;;;;;;;9.54;97.84;96272.69;5064136;28;20065;-62
2023/11/11 00:57:49;;;;;;;0.50;0.50;;;;;;;9.53;98.38;96276.59;5065479;28;20056;-63
2023/11/11 01:00:19;;;;;;;0.40;0.40;;;;;;;9.56;98.51;96275.88;5065443;28;20423;-63
2023/11/11 01:02:46;;;;;;;0.47;0.47;;;;;;;9.25;98.92;96229.38;5065050;28;20084;-62
2023/11/11 01:05:14;;;;;;;0.50;0.50;;;;;;;9.21;98.65;96187.13;5065182;28;20048;-63
2023/11/11 01:07:40;;;;;;;0.40;0.40;;;;;;;9.57;99.64;96260.84;5065155;28;20085;-62
2023/11/11 01:10:08;;;;;;;0.40;0.40;;;;;;;9.51;100.00;96267.91;5065358;28;20049;-62
2023/11/11 01:12:35;;;;;;;0.50;0.50;;;;;;;9.10;100.00;96230.44;5064996;28;20130;-63
2023/11/11 01:15:08;;;;;;;0.50;0.50;;;;;;;9.40;100.00;96255.97;5065183;28;20099;-62
2023/11/11 01:17:38;;;;;;;0.40;0.40;;;;;;;9.47;100.00;96244.19;5065218;28;20110;-62
2023/11/11 01:20:06;;;;;;;0.40;0.40;;;;;;;9.47;99.19;96250.50;5064960;28;20298;-62
2023/11/11 01:22:33;;;;;;;0.47;0.47;;;;;;;8.93;99.91;96181.34;5064861;28;20048;-62
2023/11/11 01:24:59;;;;;;;0.40;0.40;;;;;;;9.32;100.00;96232.22;5065229;28;20056;-62
2023/11/11 01:27:27;;;;;;;0.40;0.40;;;;;;;9.46;100.00;96226.81;5064538;28;20145;-63
2023/11/11 01:29:54;;;;;;;0.40;0.40;;;;;;;9.38;100.00;96230.69;5065063;28;20072;-63
2023/11/11 01:32:22;;;;;;;0.40;0.40;;;;;;;9.42;100.00;96214.91;5064883;28;20107;-63
2023/11/11 01:34:49;;;;;;;0.50;0.50;;;;;;;9.02;100.00;96154.19;5063092;28;20060;-62
2023/11/11 01:37:16;;;;;;;0.50;0.50;;;;;;;9.43;100.00;96211.00;5064056;28;20049;-63
2023/11/11 01:39:43;;;;;;;0.40;0.40;;;;;;;9.38;100.00;96197.50;5064527;28;20048;-62
2023/11/11 01:42:11;;;;;;;0.40;0.40;;;;;;;9.36;100.00;96199.84;5064017;28;20123;-64
2023/11/11 01:44:38;;;;;;;0.40;0.40;;;;;;;9.04;100.00;96194.06;5064435;28;20133;-64
2023/11/11 01:47:06;;;;;;;0.40;0.40;;;;;;;8.95;100.00;96192.78;5064598;28;20556;-63
2023/11/11 01:49:38;;;;;;;0.50;0.50;;;;;;;9.09;100.00;96179.09;5064110;28;20181;-62
2023/11/11 01:52:07;;;;;;;0.47;0.47;;;;;;;9.20;100.00;96180.00;5063092;28;20062;-62
2023/11/11 01:54:34;;;;;;;0.40;0.40;;;;;;;9.26;100.00;96192.31;5064549;28;20056;-63
2023/11/11 01:57:06;;;;;;;0.50;0.50;;;;;;;9.31;100.00;96214.03;5064140;28;20053;-64
2023/11/11 01:59:34;;;;;;;0.40;0.40;;;;;;;9.32;100.00;96215.63;5064036;28;20060;-63
2023/11/11 02:02:01;;;;;;;0.50;0.50;;;;;;;8.74;100.00;96151.19;5064308;28;20836;-62
2023/11/11 02:04:28;;;;;;;0.40;0.40;;;;;;;8.57;100.00;96179.38;5064642;28;20044;-63
2023/11/11 02:06:55;;;;;;;0.40;0.40;;;;;;;8.59;100.00;96171.53;5062950;28;20060;-63
2023/11/11 02:09:22;;;;;;;0.40;0.40;;;;;;;8.94;100.00;96188.44;5064443;28;20049;-64
2023/11/11 02:11:55;;;;;;;0.45;0.45;;;;;;;8.87;100.00;96194.69;5064053;28;20052;-63
2023/11/11 02:14:22;;;;;;;0.40;0.40;;;;;;;8.98;100.00;96189.25;5064464;28;20139;-62
2023/11/11 02:16:49;;;;;;;0.45;0.45;;;;;;;9.02;100.00;96187.34;5064049;28;20055;-62
2023/11/11 02:19:15;;;;;;;0.45;0.45;;;;;;;9.03;100.00;96164.88;5064278;28;20080;-63
2023/11/11 02:21:43;;;;;;;0.50;0.50;;;;;;;9.08;100.00;96172.00;5064335;28;20078;-63
2023/11/11 02:24:12;;;;;;;0.50;0.50;;;;;;;9.15;100.00;96188.66;5062671;28;20447;-63
2023/11/11 02:26:39;;;;;;;0.45;0.45;;;;;;;9.23;100.00;96190.31;5063795;28;20052;-64
2023/11/11 02:29:06;;;;;;;0.40;0.40;;;;;;;9.30;100.00;96190.34;5062620;28;20048;-63
2023/11/11 02:31:33;;;;;;;0.40;0.40;;;;;;;9.17;100.00;96187.09;5063969;28;20362;-63
2023/11/11 02:34:00;;;;;;;0.40;0.40;;;;;;;8.89;100.00;96188.78;5063890;28;20059;-63
2023/11/11 02:36:26;;;;;;;0.50;0.50;;;;;;;8.68;100.00;96189.38;5063579;28;20080;-63
2023/11/11 02:38:53;;;;;;;0.40;0.40;;;;;;;8.82;100.00;96169.41;5062361;28;20510;-63
2023/11/11 02:41:20;;;;;;;0.40;0.40;;;;;;;8.79;100.00;96175.66;5062769;28;20060;-63
2023/11/11 02:43:46;;;;;;;0.50;0.50;;;;;;;9.03;100.00;96161.31;5064096;28;20059;-63
2023/11/11 02:46:15;;;;;;;0.50;0.50;;;;;;;8.99;100.00;96146.69;5063498;28;20410;-62
2023/11/11 02:48:42;;;;;;;0.40;0.40;;;;;;;9.09;100.00;96173.59;5063738;28;20052;-63
2023/11/11 02:51:09;;;;;;;0.40;0.40;;;;;;;8.85;100.00;96152.84;5063686;28;20080;-63
2023/11/11 02:53:36;;;;;;;0.40;0.40;;;;;;;9.16;100.00;96179.19;5063649;28;20052;-63
2023/11/11 02:56:03;;;;;;;0.40;0.40;;;;;;;9.20;100.00;96188.28;5067990;28;20161;-63
2023/11/11 02:58:30;;;;;;;0.40;0.40;;;;;;;8.78;100.00;96179.63;5068093;28;20056;-63
2023/11/11 03:00:56;;;;;;;0.40;0.40;;;;;;;8.42;100.00;96194.22;5066222;28;20139;-63
2023/11/11 03:03:23;;;;;;;0.40;0.40;;;;;;;8.41;100.00;96160.31;5067387;28;20055;-63
2023/11/11 03:05:51;;;;;;;0.40;0.40;;;;;;;8.66;100.00;96190.94;5066014;28;20052;-63
2023/11/11 03:08:18;;;;;;;0.40;0.40;;;;;;;8.72;100.00;96187.47;5067611;28;20501;-63
2023/11/11 03:10:45;;;;;;;0.40;0.40;;;;;;;8.82;100.00;96180.47;5066245;28;20045;-63
2023/11/11 03:13:11;;;;;;;0.50;0.50;;;;;;;8.78;100.00;96179.63;5067155;28;20067;-62
2023/11/11 03:15:38;;;;;;;0.47;0.47;;;;;;;8.80;100.00;96166.22;5067493;28;20492;-63
2023/11/11 03:18:06;;;;;;;0.40;0.40;;;;;;;8.66;100.00;96166.09;5067465;28;20048;-63
2023/11/11 03:20:34;;;;;;;0.40;0.40;;;;;;;8.84;100.00;96176.13;5066905;28;20131;-62
2023/11/11 03:23:02;;;;;;;0.40;0.40;;;;;;;8.76;100.00;96193.81;5067040;28;20554;-63
2023/11/11 03:25:29;;;;;;;0.43;0.43;;;;;;;8.76;100.00;96184.72;5065693;28;20056;-62
2023/11/11 03:27:56;;;;;;;0.40;0.40;;;;;;;8.71;100.00;96174.03;5066947;28;20547;-62
2023/11/11 03:30:22;;;;;;;0.40;0.40;;;;;;;8.74;100.00;96173.28;5067387;28;20060;-62
2023/11/11 03:32:49;;;;;;;0.40;0.40;;;;;;;8.63;100.00;96169.63;5066705;28;20507;-62
2023/11/11 03:35:17;;;;;;;0.40;0.40;;;;;;;8.64;100.00;96165.69;5066397;28;20491;-62
2023/11/11 03:37:45;;;;;;;0.50;0.50;;;;;;;8.51;100.00;96142.28;5067000;28;20053;-62
2023/11/11 03:40:11;;;;;;;0.40;0.40;;;;;;;8.51;100.00;96158.84;5067304;28;20122;-62
2023/11/11 03:42:38;;;;;;;0.40;0.40;;;;;;;8.53;100.00;96156.50;5067192;28;20056;-63
2023/11/11 03:45:06;;;;;;;0.50;0.50;;;;;;;8.58;100.00;96153.41;5065441;28;20052;-63
2023/11/11 03:47:33;;;;;;;0.40;0.40;;;;;;;8.08;100.00;96090.56;5066770;28;20056;-63
2023/11/11 03:49:59;;;;;;;0.40;0.40;;;;;;;8.60;100.00;96140.03;5066628;28;20048;-63
2023/11/11 03:52:26;;;;;;;0.40;0.40;;;;;;;8.44;100.00;96142.22;5066544;28;20131;-62
2023/11/11 03:54:53;;;;;;;0.40;0.40;;;;;;;8.26;100.00;96097.06;5066894;28;20068;-61
2023/11/11 03:57:19;;;;;;;0.40;0.40;;;;;;;7.82;100.00;96046.53;5066716;28;20052;-62
2023/11/11 03:59:46;;;;;;;0.40;0.40;;;;;;;8.38;100.00;96139.00;5066641;28;20114;-62
2023/11/11 04:02:13;;;;;;;0.40;0.40;;;;;;;8.27;100.00;96137.28;5065184;28;20052;-63
2023/11/11 04:04:40;;;;;;;0.38;0.38;;;;;;;8.33;100.00;96130.28;5066342;28;20052;-63
2023/11/11 04:07:07;;;;;;;0.40;0.40;;;;;;;7.82;100.00;96049.28;5065655;28;20515;-61
2023/11/11 04:09:33;;;;;;;0.43;0.43;;;;;;;8.17;100.00;96118.63;5066233;28;20526;-61
2023/11/11 04:12:01;;;;;;;0.40;0.40;;;;;;;7.93;100.00;96119.94;5066477;28;20052;-62
2023/11/11 04:14:28;;;;;;;0.40;0.40;;;;;;;7.89;100.00;96121.84;5066327;28;20056;-62
2023/11/11 04:16:54;;;;;;;0.40;0.40;;;;;;;7.85;100.00;96120.22;5066064;28;20581;-62
2023/11/11 04:19:21;;;;;;;0.40;0.40;;;;;;;7.79;100.00;96072.09;5066377;28;20122;-62
2023/11/11 04:21:50;;;;;;;0.40;0.40;;;;;;;7.65;100.00;96059.72;5065916;28;20053;-63
2023/11/11 04:24:17;;;;;;;0.40;0.40;;;;;;;7.53;100.00;96040.69;5065033;28;20087;-62
2023/11/11 04:26:44;;;;;;;0.30;0.30;;;;;;;8.05;100.00;96091.28;5064507;28;20090;-63
2023/11/11 04:29:12;;;;;;;0.40;0.40;;;;;;;7.89;100.00;96099.00;5066149;28;20076;-61
2023/11/11 04:31:38;;;;;;;0.40;0.40;;;;;;;7.82;100.00;96105.22;5065902;28;20055;-62
2023/11/11 04:34:05;;;;;;;0.40;0.40;;;;;;;7.83;100.00;96106.00;5064338;28;20052;-62
2023/11/11 04:36:32;;;;;;;0.40;0.40;;;;;;;7.52;100.00;96091.44;5064297;28;20110;-63
2023/11/11 04:38:59;;;;;;;0.40;0.40;;;;;;;7.63;100.00;96103.38;5065452;28;20180;-62
2023/11/11 04:41:26;;;;;;;0.40;0.40;;;;;;;7.53;100.00;96106.81;5066104;28;20057;-62
2023/11/11 04:43:54;;;;;;;0.40;0.40;;;;;;;7.51;100.00;96103.63;5065667;28;20048;-62
2023/11/11 04:46:21;;;;;;;0.40;0.40;;;;;;;7.58;100.00;96100.19;5065792;28;20440;-62
2023/11/11 04:48:48;;;;;;;0.32;0.32;;;;;;;7.55;100.00;96096.22;5065557;28;20056;-61
2023/11/11 04:51:16;;;;;;;0.40;0.40;;;;;;;7.67;100.00;96087.72;5064097;28;20049;-61
2023/11/11 04:53:43;;;;;;;0.40;0.40;;;;;;;7.70;100.00;96081.44;5065319;28;20617;-62
2023/11/11 04:56:09;;;;;;;0.40;0.40;;;;;;;7.71;100.00;96088.53;5065593;28;20250;-62
2023/11/11 04:58:38;;;;;;;0.40;0.40;;;;;;;7.84;100.00;96096.56;5065382;28;20135;-62
2023/11/11 05:01:05;;;;;;;0.40;0.40;;;;;;;7.68;100.00;96089.28;5065828;28;20048;-62
2023/11/11 05:03:32;;;;;;;0.40;0.40;;;;;;;7.78;100.00;96109.13;5065560;28;20435;-62
2023/11/11 05:05:59;;;;;;;0.40;0.40;;;;;;;7.72;100.00;96122.41;5065360;28;20127;-62
2023/11/11 05:08:26;;;;;;;0.40;0.40;;;;;;;7.76;100.00;96116.94;5065097;28;20056;-63
2023/11/11 05:10:53;;;;;;;0.30;0.30;;;;;;;7.72;100.00;96101.16;5065272;28;20237;-64
2023/11/11 05:13:20;;;;;;;0.40;0.40;;;;;;;7.80;100.00;96123.28;5065283;28;20065;-62
2023/11/11 05:15:58;;;;;;;0.40;0.40;;;;;;;7.79;100.00;96116.19;5064900;28;20051;-62
2023/11/11 05:18:26;;;;;;;0.40;0.40;;;;;;;7.77;100.00;96108.31;5064098;28;20114;-61
2023/11/11 05:20:53;;;;;;;0.40;0.40;;;;;;;7.36;100.00;96049.53;5064880;28;20047;-61
2023/11/11 05:23:20;;;;;;;0.40;0.40;;;;;;;7.69;100.00;96110.19;5063162;28;20060;-61
2023/11/11 05:25:47;;;;;;;0.32;0.32;;;;;;;7.70;100.00;96091.66;5064865;28;20052;-62
2023/11/11 05:28:14;;;;;;;0.40;0.40;;;;;;;7.79;100.00;96083.13;5064788;28;20136;-62
2023/11/11 05:30:40;;;;;;;0.40;0.40;;;;;;;7.42;100.00;96003.97;5065076;28;20129;-62
2023/11/11 05:33:07;;;;;;;0.40;0.40;;;;;;;7.91;100.00;96082.84;5064153;28;20550;-63
2023/11/11 05:35:34;;;;;;;0.40;0.40;;;;;;;7.57;100.00;96033.25;5062608;28;20086;-62
2023/11/11 05:38:00;;;;;;;0.40;0.40;;;;;;;8.10;100.00;96069.69;5063445;28;20047;-63
2023/11/11 05:40:29;;;;;;;0.40;0.40;;;;;;;8.22;100.00;96079.69;5063395;28;20048;-62
2023/11/11 05:42:57;;;;;;;0.40;0.40;;;;;;;8.42;100.00;96100.41;5062289;28;20066;-63
2023/11/11 05:45:24;;;;;;;0.40;0.40;;;;;;;8.52;100.00;96091.44;5058494;28;20045;-63
2023/11/11 05:47:51;;;;;;;0.40;0.40;;;;;;;8.70;100.00;96103.41;5043228;28;20053;-63
2023/11/11 05:50:20;;;;;;;0.40;0.40;;;;;;;8.83;100.00;96115.78;5043403;28;20766;-63
2023/11/11 05:52:47;;;;;;;0.40;0.40;;;;;;;8.61;100.00;96076.16;5043283;28;20053;-64
2023/11/11 05:55:13;;;;;;;0.40;0.40;;;;;;;8.94;100.00;96128.50;5043844;28;20059;-63
2023/11/11 05:57:40;;;;;;;0.40;0.40;;;;;;;8.49;100.00;96034.22;5044105;28;20055;-60
2023/11/11 06:00:12;;;;;;;0.40;0.40;;;;;;;9.00;99.43;96093.03;5043939;28;20049;-62
2023/11/11 06:02:39;;;;;;;0.40;0.40;;;;;;;8.03;99.89;96008.16;5042589;28;20103;-62
2023/11/11 06:05:06;;;;;;;0.40;0.40;;;;;;;8.23;100.00;96061.97;5044382;28;20045;-62
2023/11/11 06:07:33;;;;;;;0.40;0.40;;;;;;;8.68;100.00;96092.75;5044343;28;20053;-61
2023/11/11 06:10:00;;;;;;;0.40;0.40;;;;;;;8.83;99.33;96082.63;5044142;28;20056;-62
2023/11/11 06:12:27;;;;;;;0.50;0.50;;;;;;;8.86;100.00;96081.88;5043708;28;20045;-62
2023/11/11 06:14:53;;;;;;;0.40;0.40;;;;;;;8.92;100.00;96094.13;5042519;28;20546;-62
2023/11/11 06:17:20;;;;;;;0.40;0.40;;;;;;;8.66;98.94;96050.16;5044109;28;20064;-62
2023/11/11 06:19:47;;;;;;;0.45;0.45;;;;;;;9.04;97.33;96091.88;5043663;28;20055;-62
2023/11/11 06:22:13;;;;;;;0.50;0.50;;;;;;;9.00;97.52;96096.59;5054445;28;20410;-62
2023/11/11 06:24:40;;;;;;;0.40;0.40;;;;;;;8.88;98.72;96072.00;5064150;28;20128;-62
2023/11/11 06:27:09;;;;;;;0.40;0.40;;;;;;;9.15;97.71;96072.63;5063456;28;20052;-63
2023/11/11 06:29:36;;;;;;;0.50;0.50;;;;;;;9.16;97.47;96069.47;5069209;28;20047;-61
2023/11/11 06:32:04;;;;;;;0.47;0.47;;;;;;;9.23;97.78;96063.22;5083046;28;20603;-62
2023/11/11 06:34:31;;;;;;;0.40;0.40;;;;;;;9.33;97.40;96083.75;5080931;28;20048;-63
2023/11/11 06:36:58;;;;;;;0.40;0.40;;;;;;;9.39;97.40;96105.13;5081616;28;20066;-62
2023/11/11 06:39:25;;;;;;;0.40;0.40;;;;;;;9.49;97.07;96115.47;5075271;28;20049;-61
2023/11/11 06:41:52;;;;;;;0.40;0.40;;;;;;;9.05;94.66;96048.47;5058223;28;20593;-62
2023/11/11 06:44:20;;;;;;;0.47;0.47;;;;;;;9.62;95.55;96133.31;5060966;28;20685;-61
2023/11/11 06:46:47;;;;;;;0.40;0.40;;;;;;;9.61;93.75;96106.84;5059817;28;20095;-62
2023/11/11 06:49:14;;;;;;;0.40;0.40;;;;;;;9.57;95.23;96089.44;5061403;28;20099;-61
2023/11/11 06:51:41;;;;;;;0.40;0.40;;;;;;;9.57;95.48;96078.38;5076967;28;20048;-62
2023/11/11 06:54:09;;;;;;;0.50;0.50;;;;;;;8.74;97.11;96046.28;5063366;28;20041;-61
2023/11/11 06:56:36;;;;;;;0.40;0.40;;;;;;;9.04;98.11;96067.00;5063602;28;20076;-62
2023/11/11 06:59:03;;;;;;;0.47;0.47;;;;;;;9.33;96.85;96101.16;5078843;28;20477;-61
2023/11/11 07:01:30;;;;;;;0.50;0.50;;;;;;;9.39;96.32;96105.13;5059085;28;20040;-61
2023/11/11 07:03:57;;;;;;;0.50;0.50;;;;;;;9.43;97.13;96117.00;5063057;28;20052;-60
2023/11/11 07:06:24;;;;;;;0.40;0.40;;;;;;;9.45;97.28;96103.59;5061624;28;20059;-61
2023/11/11 07:08:52;;;;;;;0.50;0.50;;;;;;;9.46;97.33;96088.59;5063210;28;20053;-61
2023/11/11 07:11:19;;;;;;;0.40;0.40;;;;;;;9.50;97.64;96083.88;5058361;28;20227;-60
2023/11/11 07:13:46;;;;;;;0.47;0.47;;;;;;;9.55;97.77;96075.22;5046774;28;20643;-67
2023/11/11 07:16:14;;;;;;;0.40;0.40;;;;;;;9.56;97.36;96076.81;5055146;28;20534;-62
2023/11/11 07:18:42;;;;;;;0.40;0.40;;;;;;;8.67;97.60;95930.28;5061168;28;20479;-62
2023/11/11 07:21:21;;;;;;;0.40;0.40;;;;;;;9.53;98.53;96065.75;5057781;28;20045;-65
2023/11/11 07:23:49;;;;;;;0.50;0.50;;;;;;;9.38;98.00;96019.84;5062289;28;20084;-64
2023/11/11 07:26:16;;;;;;;0.40;0.40;;;;;;;9.62;98.00;96075.25;5062613;28;20061;-63
2023/11/11 07:28:46;;;;;;;0.40;0.40;;;;;;;9.86;96.23;96063.53;5058694;28;20564;-63
2023/11/11 07:31:14;;;;;;;0.40;0.40;;;;;;;9.59;97.44;96064.19;5050254;28;20128;-61
2023/11/11 07:33:42;;;;;;;0.40;0.40;;;;;;;9.75;98.56;96073.75;5053358;28;20052;-64
2023/11/11 07:36:09;;;;;;;0.40;0.40;;;;;;;9.79;97.89;96055.19;5056514;28;20511;-67
2023/11/11 07:38:42;;;;;;;0.40;0.40;;;;;;;9.37;98.21;96002.50;5060996;28;20167;-70
2023/11/11 07:41:10;;;;;;;0.50;0.50;;;;;;;9.83;98.89;96063.50;5044413;28;20527;-70
2023/11/11 07:43:38;;;;;;;0.50;0.50;;;;;;;8.04;98.37;95753.31;5062385;28;20152;-62
2023/11/11 07:46:09;;;;;;;0.50;0.50;;;;;;;9.73;98.42;96012.50;5065187;28;20060;-62
2023/11/11 07:48:36;;;;;;;0.40;0.40;;;;;;;8.96;97.67;95887.84;5066030;28;20063;-66
2023/11/11 07:51:04;;;;;;;0.50;0.50;;;;;;;9.95;97.91;96058.41;5058142;28;20068;-71
2023/11/11 07:53:32;;;;;;;0.40;0.40;;;;;;;9.55;97.94;96119.44;5065708;28;20109;-65
2023/11/11 07:56:02;;;;;;;0.50;0.50;;;;;;;8.99;98.10;95881.56;5064264;28;20052;-66
2023/11/11 07:58:29;;;;;;;0.40;0.40;;;;;;;10.11;98.01;96041.50;5063388;28;20053;-69
2023/11/11 08:01:01;;;;;;;0.50;0.50;;;;;;;9.58;98.93;95979.69;5062872;28;20063;-70
2023/11/11 08:03:28;;;;;;;0.50;0.50;;;;;;;9.97;99.63;96050.53;5063064;28;20056;-64
2023/11/11 08:05:55;;;;;;;0.40;0.40;;;;;;;9.92;100.00;96045.38;5064129;28;20049;-71
2023/11/11 08:08:23;;;;;;;0.50;0.50;;;;;;;9.96;100.00;96029.56;5064081;28;20175;-67
2023/11/11 08:10:50;;;;;;;0.50;0.50;;;;;;;9.90;100.00;96027.56;5064633;28;20059;-63
2023/11/11 08:13:17;;;;;;;0.47;0.47;;;;;;;9.62;100.00;96008.91;5057616;28;20048;-61
2023/11/11 08:15:45;;;;;;;0.43;0.43;;;;;;;9.06;100.00;95892.59;5060680;28;20049;-70
2023/11/11 08:18:12;;;;;;;0.50;0.50;;;;;;;9.70;100.00;95982.06;5063256;28;20126;-70
2023/11/11 08:20:39;;;;;;;0.40;0.40;;;;;;;9.73;100.00;95987.63;5051414;28;20084;-71
2023/11/11 08:23:05;;;;;;;0.50;0.50;;;;;;;10.01;100.00;96043.00;5058621;28;20048;-68
2023/11/11 08:25:32;;;;;;;0.40;0.40;;;;;;;9.59;100.00;95987.56;5059455;28;20119;-69
2023/11/11 08:28:00;;;;;;;0.40;0.40;;;;;;;9.53;100.00;95978.06;5062723;28;20143;-64
2023/11/11 08:30:27;;;;;;;0.40;0.40;;;;;;;9.27;100.00;95925.84;5063455;28;20055;-67
2023/11/11 08:32:54;;;;;;;0.43;0.43;;;;;;;9.76;100.00;96024.75;5062119;28;20130;-64
2023/11/11 08:35:21;;;;;;;0.40;0.40;;;;;;;9.17;100.00;95915.53;5083285;28;20097;-70
2023/11/11 08:37:48;;;;;;;0.40;0.40;;;;;;;9.13;100.00;95925.81;5069806;28;20040;-71
2023/11/11 08:40:17;;;;;;;0.40;0.40;;;;;;;9.60;100.00;95994.69;5063229;28;20143;-70
2023/11/11 08:42:45;;;;;;;0.50;0.50;;;;;;;9.64;100.00;96001.00;5063662;28;20052;-70
2023/11/11 08:45:13;;;;;;;0.50;0.50;;;;;;;9.77;100.00;96002.22;5064047;28;20431;-73
2023/11/11 08:47:41;;;;;;;0.40;0.40;;;;;;;9.78;100.00;96006.59;5064196;28;20075;-70
2023/11/11 08:50:09;;;;;;;0.50;0.50;;;;;;;8.76;100.00;95829.38;5063807;28;20040;-73
2023/11/11 08:52:37;;;;;;;0.40;0.40;;;;;;;8.66;100.00;95873.50;5047236;28;20064;-67
2023/11/11 08:55:06;;;;;;;0.40;0.40;;;;;;;8.65;100.00;95899.50;5045607;28;20538;-68
2023/11/11 08:57:33;;;;;;;0.40;0.40;;;;;;;8.15;100.00;95787.25;5055625;28;20052;-68
2023/11/11 09:00:00;;;;;;;0.40;0.40;;;;;;;9.24;100.00;95926.63;5048091;28;20056;-67
2023/11/11 09:02:27;;;;;;;0.50;0.50;;;;;;;8.41;100.00;95789.81;5058839;28;20507;-77
2023/11/11 09:04:53;;;;;;;0.40;0.40;;;;;;;9.48;100.00;95950.81;5061426;28;20187;-67
2023/11/11 09:07:20;;;;;;;0.40;0.40;;;;;;;9.08;100.00;95884.72;5064522;28;20051;-72
2023/11/11 09:09:50;;;;;;;0.50;0.50;;;;;;;9.58;100.00;95952.81;5055468;28;20049;-71
2023/11/11 09:12:17;;;;;;;0.50;0.50;;;;;;;9.63;100.00;95932.28;5057451;28;20048;-72
2023/11/11 09:14:44;;;;;;;0.50;0.50;;;;;;;9.76;100.00;95926.00;5063246;28;20087;-69
2023/11/11 09:17:12;;;;;;;0.47;0.47;;;;;;;9.53;100.00;95889.59;5063714;28;20048;-73
2023/11/11 09:19:39;;;;;;;0.40;0.40;;;;;;;9.66;100.00;95904.63;5058300;28;20252;-70
2023/11/11 09:22:06;;;;;;;0.40;0.40;;;;;;;9.44;100.00;95847.72;5052528;28;20045;-71
2023/11/11 09:24:33;;;;;;;0.40;0.40;;;;;;;10.11;100.00;95897.63;5058014;28;20740;-67
2023/11/11 09:27:00;;;;;;;0.45;0.45;;;;;;;9.90;100.00;95820.91;5064104;28;20454;-65
2023/11/11 09:29:31;;;;;;;0.40;0.40;;;;;;;9.61;100.00;95758.50;5044528;28;20061;-73
2023/11/11 09:31:58;;;;;;;0.40;0.40;;;;;;;9.46;100.00;95784.56;5048940;28;20736;-67
2023/11/11 09:34:25;;;;;;;0.40;0.40;;;;;;;9.47;100.00;95818.53;5055306;28;20095;-66
2023/11/11 09:36:53;;;;;;;0.50;0.50;;;;;;;9.60;100.00;95837.09;5056360;28;20053;-69
2023/11/11 09:39:20;;;;;;;0.40;0.40;;;;;;;9.52;100.00;95827.22;5050733;28;20146;-67
2023/11/11 09:41:46;;;;;;;0.40;0.40;;;;;;;9.21;100.00;95786.53;5048955;28;20055;-69
2023/11/11 09:44:14;;;;;;;0.50;0.50;;;;;;;8.54;100.00;95686.16;5050422;28;20052;-72
2023/11/11 09:46:55;;;;;;;0.50;0.50;;;;;;;9.58;100.00;95811.03;5054510;28;20064;-70
2023/11/11 09:49:33;;;;;;;0.40;0.40;;;;;;;9.78;100.00;95837.13;5050744;28;20053;-65
2023/11/11 09:52:02;;;;;;;0.40;0.40;;;;;;;9.80;100.00;95783.00;5048537;28;20060;-72
2023/11/11 09:54:29;;;;;;;0.40;0.40;;;;;;;10.11;100.00;95820.94;5059886;28;20063;-65
2023/11/11 09:56:58;;;;;;;0.50;0.50;;;;;;;10.13;100.00;95774.28;5060805;28;20041;-73
2023/11/11 09:59:30;;;;;;;0.50;0.50;;;;;;;10.67;100.00;95815.28;5061379;28;20538;-70
2023/11/11 10:01:57;;;;;;;0.40;0.40;;;;;;;10.73;100.00;95806.56;5048859;28;20065;-71
2023/11/11 10:04:24;;;;;;;0.50;0.50;;;;;;;9.52;100.00;95633.75;5048136;28;20507;-71
2023/11/11 10:06:52;;;;;;;0.50;0.50;;;;;;;10.99;100.00;95792.19;5060088;28;20435;-64
2023/11/11 10:09:19;;;;;;;0.45;0.45;;;;;;;10.62;100.00;95724.31;5057630;28;20621;-65
2023/11/11 10:11:47;;;;;;;0.50;0.50;;;;;;;10.98;100.00;95760.94;5054190;28;20052;-65
2023/11/11 10:14:15;;;;;;;0.50;0.50;;;;;;;11.19;100.00;95771.13;5063944;28;20059;-64
2023/11/11 10:16:42;;;;;;;0.50;0.50;;;;;;;11.23;100.00;95764.34;5063790;28;20056;-64
2023/11/11 10:19:14;;;;;;;0.50;0.50;;;;;;;11.20;100.00;95767.94;5055722;28;20064;-66
2023/11/11 10:21:42;;;;;;;0.45;0.45;;;;;;;11.19;100.00;95771.13;5043945;28;20257;-64
2023/11/11 10:24:10;;;;;;;0.50;0.50;;;;;;;11.19;100.00;95779.44;5043420;28;20049;-63
2023/11/11 10:26:39;;;;;;;0.50;0.50;;;;;;;11.30;100.00;95760.75;5043375;28;20068;-65
2023/11/11 10:29:08;;;;;;;0.50;0.50;;;;;;;11.48;100.00;95748.34;5041778;28;20052;-64
2023/11/11 10:31:36;;;;;;;0.47;0.47;;;;;;;11.71;100.00;95742.25;5042258;28;20049;-63
2023/11/11 10:34:04;;;;;;;0.50;0.50;;;;;;;11.68;100.00;95746.63;5043198;28;20516;-64
2023/11/11 10:36:40;;;;;;;0.47;0.47;;;;;;;11.56;100.00;95721.34;5041797;28;20119;-64
2023/11/11 10:39:11;;;;;;;0.50;0.50;;;;;;;12.17;100.00;95726.72;5041715;28;20573;-64
2023/11/11 10:41:39;;;;;;;0.50;0.50;;;;;;;12.52;100.00;95745.00;5041510;28;20495;-63
2023/11/11 10:44:07;;;;;;;0.60;0.60;;;;;;;12.77;100.00;95734.38;5042860;28;20063;-63
2023/11/11 10:46:36;;;;;;;0.52;0.52;;;;;;;13.10;100.00;95753.00;5051992;28;20049;-64
2023/11/11 10:49:04;;;;;;;0.50;0.50;;;;;;;12.83;100.00;95688.25;5063683;28;20420;-63
2023/11/11 10:51:33;;;;;;;0.50;0.50;;;;;;;12.86;100.00;95733.88;5062273;28;20044;-64
2023/11/11 10:54:05;;;;;;;0.50;0.50;;;;;;;13.14;100.00;95756.56;5062918;28;20048;-64
2023/11/11 10:56:33;;;;;;;0.60;0.60;;;;;;;13.02;100.00;95734.88;5063278;28;20049;-64
2023/11/11 10:59:05;;;;;;;0.50;0.50;;;;;;;12.87;100.00;95700.09;5062811;28;20052;-65
2023/11/11 11:01:33;;;;;;;0.60;0.60;;;;;;;13.03;100.00;95741.22;5063834;28;20261;-64
2023/11/11 11:04:02;;;;;;;0.50;0.50;;;;;;;12.82;100.00;95697.78;5062121;28;20052;-64
2023/11/11 11:06:35;;;;;;;0.50;0.50;;;;;;;12.85;100.00;95735.09;5063197;28;20056;-64
2023/11/11 11:09:34;;;;;;;0.60;0.60;;;;;;;12.90;100.00;95738.16;5063160;28;21221;-64
2023/11/11 11:12:15;;;;;;;0.50;0.50;;;;;;;13.10;100.00;95730.78;5062517;28;20496;-64
2023/11/11 11:14:52;;;;;;;0.60;0.60;;;;;;;13.39;100.00;95720.81;5061529;28;20060;-65
2023/11/11 11:17:24;;;;;;;0.50;0.50;;;;;;;13.53;100.00;95692.78;5065088;28;20055;-65
2023/11/11 11:19:52;;;;;;;0.60;0.60;;;;;;;13.51;100.00;95692.41;5065275;28;20378;-66
2023/11/11 11:22:23;;;;;;;0.57;0.57;;;;;;;13.70;100.00;95680.56;5066210;28;20677;-65
2023/11/11 11:24:50;;;;;;;0.60;0.60;;;;;;;13.79;97.70;95673.66;5064766;28;20055;-66
2023/11/11 11:27:18;;;;;;;0.60;0.60;;;;;;;13.94;97.79;95667.41;5066668;28;20052;-64
2023/11/11 11:29:46;;;;;;;0.60;0.60;;;;;;;13.70;94.55;95630.47;5066357;28;20056;-65
2023/11/11 11:32:13;;;;;;;0.60;0.60;;;;;;;14.02;94.54;95673.66;5065241;28;20052;-65
2023/11/11 11:34:42;;;;;;;0.60;0.60;;;;;;;13.58;93.49;95677.59;5066192;28;20127;-64
2023/11/11 11:37:10;;;;;;;0.60;0.60;;;;;;;13.23;91.79;95562.16;5066828;28;20076;-63